Time;durP1;ratioP1;P1;durP2;ratioP2;P2;SDS_P1;SDS_P2;PMS_P1;PMS_P2;Temp;Humidity;BMP_temperature;BMP_pressure;BME280_temperature;BME280_humidity;BME280_pressure;Samples;Min_cycle;Max_cycle;Signal;HPM_P1;HPM_P2
2023/06/22 00:05:31;;;;;;;8.5;5.4;;;;;;;19.83;83.19;;;;;
2023/06/22 00:16:31;;;;;;;10;5.4;;;;;;;19.88;82.94;;;;;
2023/06/22 00:26:31;;;;;;;10;5.4;;;;;;;19.91;82.76;;;;;
2023/06/22 00:37:31;;;;;;;10;5.4;;;;;;;19.54;83.78;;;;;
2023/06/22 00:48:31;;;;;;;9.1;5.8;;;;;;;19.47;83.75;;;;;
2023/06/22 00:59:32;;;;;;;9.1;5.8;;;;;;;19.43;83.54;;;;;
2023/06/22 01:09:31;;;;;;;9.1;5.8;;;;;;;19.24;84.52;;;;;
2023/06/22 01:19:31;;;;;;;10.2;7.2;;;;;;;19.14;85.69;;;;;
2023/06/22 01:30:31;;;;;;;10.2;7.2;;;;;;;19.24;84.88;;;;;
2023/06/22 01:40:31;;;;;;;10.2;7.2;;;;;;;19.23;85.29;;;;;
2023/06/22 01:50:31;;;;;;;11;7.8;;;;;;;19.33;84.83;;;;;
2023/06/22 02:00:31;;;;;;;11;7.8;;;;;;;19.38;83.95;;;;;
2023/06/22 02:11:31;;;;;;;11;7.8;;;;;;;19.14;85.19;;;;;
2023/06/22 02:21:31;;;;;;;11.8;6;;;;;;;19.21;84.52;;;;;
2023/06/22 02:32:34;;;;;;;11.8;6;;;;;;;19.31;83.47;;;;;
2023/06/22 02:42:31;;;;;;;7.3;4.6;;;;;;;19.19;83.97;;;;;
2023/06/22 02:53:32;;;;;;;7.3;4.6;;;;;;;19.26;83.38;;;;;
2023/06/22 03:03:31;;;;;;;7.3;4.6;;;;;;;19.22;83.75;;;;;
2023/06/22 03:13:31;;;;;;;9.4;5.7;;;;;;;19.2;83.88;;;;;
2023/06/22 03:23:31;;;;;;;9.4;5.7;;;;;;;19.24;83.43;;;;;
2023/06/22 03:34:34;;;;;;;9.4;5.7;;;;;;;19.22;83.54;;;;;
2023/06/22 03:44:31;;;;;;;8.9;5.4;;;;;;;19.07;84.5;;;;;
2023/06/22 03:54:31;;;;;;;8.9;5.4;;;;;;;19.19;84.12;;;;;
2023/06/22 04:05:31;;;;;;;8.9;5.4;;;;;;;19.4;84.01;;;;;
2023/06/22 04:15:31;;;;;;;9.9;5.7;;;;;;;19.55;84.15;;;;;
2023/06/22 04:26:36;;;;;;;9.9;5.7;;;;;;;19.98;83.81;;;;;
2023/06/22 04:37:31;;;;;;;9.9;5.7;;;;;;;20.39;82.94;;;;;
2023/06/22 04:48:32;;;;;;;10.3;7.4;;;;;;;20.97;81.05;;;;;
2023/06/22 04:58:32;;;;;;;10.3;7.4;;;;;;;21.36;80.42;;;;;
2023/06/22 05:09:31;;;;;;;10.3;7.4;;;;;;;21.96;78.49;;;;;
2023/06/22 05:20:31;;;;;;;11.9;7.3;;;;;;;22.14;77.72;;;;;
2023/06/22 05:30:31;;;;;;;11.9;7.3;;;;;;;22.45;76.74;;;;;
2023/06/22 05:40:31;;;;;;;11.9;7.3;;;;;;;22.76;76.3;;;;;
2023/06/22 05:51:31;;;;;;;13.9;7.8;;;;;;;23.09;75.54;;;;;
2023/06/22 06:02:32;;;;;;;13.9;7.8;;;;;;;23.31;75.81;;;;;
2023/06/22 06:13:31;;;;;;;12.2;7.8;;;;;;;23.74;73.38;;;;;
2023/06/22 06:23:31;;;;;;;12.2;7.8;;;;;;;24.09;72.15;;;;;
2023/06/22 06:34:31;;;;;;;12.2;7.8;;;;;;;24.21;72.08;;;;;
2023/06/22 06:45:32;;;;;;;12.7;8.4;;;;;;;24.61;71.54;;;;;
2023/06/22 06:55:32;;;;;;;12.7;8.4;;;;;;;25.05;70.15;;;;;
2023/06/22 07:06:32;;;;;;;12.7;8.4;;;;;;;25.54;69.23;;;;;
2023/06/22 07:16:32;;;;;;;13.5;10.1;;;;;;;25.36;69.73;;;;;
2023/06/22 07:26:31;;;;;;;13.5;10.1;;;;;;;25.72;68.06;;;;;
2023/06/22 07:37:33;;;;;;;13.5;10.1;;;;;;;26.08;67.46;;;;;
2023/06/22 07:47:34;;;;;;;15.4;12;;;;;;;25.99;67.71;;;;;
2023/06/22 07:58:31;;;;;;;15.4;12;;;;;;;26.56;66.07;;;;;
2023/06/22 08:09:31;;;;;;;15.4;12;;;;;;;26.38;66.4;;;;;
2023/06/22 08:20:32;;;;;;;15.9;11.9;;;;;;;27.3;64.08;;;;;
2023/06/22 08:30:31;;;;;;;15.9;11.9;;;;;;;28.39;59.91;;;;;
2023/06/22 08:40:32;;;;;;;15.9;11.9;;;;;;;28.34;60.76;;;;;
2023/06/22 08:50:32;;;;;;;18.5;13.4;;;;;;;28.73;59.29;;;;;
2023/06/22 09:01:31;;;;;;;18.5;13.4;;;;;;;28.52;59.35;;;;;
2023/06/22 09:11:31;;;;;;;18.5;13.4;;;;;;;28.46;60.03;;;;;
2023/06/22 09:21:31;;;;;;;17.7;15.1;;;;;;;28.57;60.63;;;;;
2023/06/22 09:31:31;;;;;;;17.7;15.1;;;;;;;28.95;55.64;;;;;
2023/06/22 09:42:31;;;;;;;17.7;15.1;;;;;;;28.99;58.14;;;;;
2023/06/22 09:53:31;;;;;;;18.8;16.1;;;;;;;29.11;55.47;;;;;
2023/06/22 10:04:31;;;;;;;18.8;16.1;;;;;;;29.43;52.63;;;;;
2023/06/22 10:14:31;;;;;;;21.8;14.9;;;;;;;29.58;53.69;;;;;
2023/06/22 10:25:31;;;;;;;21.8;14.9;;;;;;;30.18;52.67;;;;;
2023/06/22 10:36:31;;;;;;;21.8;14.9;;;;;;;30.62;51.87;;;;;
2023/06/22 10:46:31;;;;;;;16.4;14.4;;;;;;;30.51;52.19;;;;;
2023/06/22 10:57:31;;;;;;;16.4;14.4;;;;;;;30.21;51.73;;;;;
2023/06/22 11:07:32;;;;;;;16.4;14.4;;;;;;;30.07;51.97;;;;;
2023/06/22 11:18:33;;;;;;;16.9;12.9;;;;;;;30.16;51.5;;;;;
2023/06/22 11:28:31;;;;;;;16.9;12.9;;;;;;;30.36;50.8;;;;;
2023/06/22 11:38:31;;;;;;;16.9;12.9;;;;;;;29.61;52.76;;;;;
2023/06/22 11:48:31;;;;;;;13.7;11.1;;;;;;;29.68;52.42;;;;;
2023/06/22 11:58:31;;;;;;;13.7;11.1;;;;;;;29.92;53.71;;;;;
2023/06/22 12:09:31;;;;;;;13.7;11.1;;;;;;;30.48;51.26;;;;;
2023/06/22 12:19:31;;;;;;;13.9;10.5;;;;;;;30.19;51.22;;;;;
2023/06/22 12:29:31;;;;;;;13.9;10.5;;;;;;;30.7;48.7;;;;;
2023/06/22 12:39:31;;;;;;;13.9;10.5;;;;;;;31.2;49.26;;;;;
2023/06/22 12:50:31;;;;;;;11.3;9.3;;;;;;;31.53;47.29;;;;;
2023/06/22 13:01:31;;;;;;;11.3;9.3;;;;;;;31.78;46.12;;;;;
2023/06/22 13:12:31;;;;;;;11.3;9.3;;;;;;;31.17;45.64;;;;;
2023/06/22 13:22:31;;;;;;;13.7;11;;;;;;;30.68;46.93;;;;;
2023/06/22 13:33:31;;;;;;;13.7;11;;;;;;;30.9;49.28;;;;;
2023/06/22 13:43:31;;;;;;;14;10.6;;;;;;;31.91;46;;;;;
2023/06/22 13:53:31;;;;;;;14;10.6;;;;;;;31.66;44.65;;;;;
2023/06/22 14:04:31;;;;;;;14;10.6;;;;;;;32.48;43.87;;;;;
2023/06/22 14:14:31;;;;;;;12.4;9.3;;;;;;;33.34;41.34;;;;;
2023/06/22 14:25:31;;;;;;;12.4;9.3;;;;;;;32.42;43.46;;;;;
2023/06/22 14:36:31;;;;;;;12.4;9.3;;;;;;;32.46;44.52;;;;;
2023/06/22 14:46:31;;;;;;;10.1;7.9;;;;;;;33.02;45.29;;;;;
2023/06/22 14:56:31;;;;;;;10.1;7.9;;;;;;;33.33;45.29;;;;;
2023/06/22 15:06:31;;;;;;;10.1;7.9;;;;;;;34.56;41.32;;;;;
2023/06/22 15:17:32;;;;;;;12.8;6.6;;;;;;;35.65;39.13;;;;;
2023/06/22 15:27:31;;;;;;;12.8;6.6;;;;;;;35.96;39.22;;;;;
2023/06/22 15:37:31;;;;;;;12.8;6.6;;;;;;;33.91;41.97;;;;;
2023/06/22 15:47:31;;;;;;;10.2;6.4;;;;;;;34.88;41.42;;;;;
2023/06/22 15:58:31;;;;;;;10.2;6.4;;;;;;;35.77;38.12;;;;;
2023/06/22 16:08:33;;;;;;;10.2;6.4;;;;;;;35.02;39.64;;;;;
2023/06/22 16:18:31;;;;;;;7.8;5.3;;;;;;;36.64;37.88;;;;;
2023/06/22 16:29:31;;;;;;;7.8;5.3;;;;;;;36.22;37.34;;;;;
2023/06/22 16:40:32;;;;;;;7.8;5.3;;;;;;;36.68;37.97;;;;;
2023/06/22 16:51:31;;;;;;;9.5;5.7;;;;;;;35.76;38.34;;;;;
2023/06/22 17:01:33;;;;;;;9.5;5.7;;;;;;;34.82;40.25;;;;;
2023/06/22 17:11:31;;;;;;;9.5;5.7;;;;;;;32.29;44.19;;;;;
2023/06/22 17:22:35;;;;;;;9.4;5.3;;;;;;;31.2;47.32;;;;;
2023/06/22 17:33:31;;;;;;;9.4;5.3;;;;;;;31.13;46.83;;;;;
2023/06/22 17:43:31;;;;;;;9.4;5.3;;;;;;;30.97;47.42;;;;;
2023/06/22 17:54:31;;;;;;;9;6.3;;;;;;;30.55;48.2;;;;;
2023/06/22 18:05:31;;;;;;;9;6.3;;;;;;;29.18;51.43;;;;;
2023/06/22 18:16:31;;;;;;;10.2;7;;;;;;;28.07;53.89;;;;;
2023/06/22 18:27:31;;;;;;;10.2;7;;;;;;;27.25;56.47;;;;;
2023/06/22 18:37:31;;;;;;;10.2;7;;;;;;;26.51;58.03;;;;;
2023/06/22 18:47:31;;;;;;;9.7;6.6;;;;;;;25.79;61.07;;;;;
2023/06/22 18:58:31;;;;;;;9.7;6.6;;;;;;;25.36;61.7;;;;;
2023/06/22 19:09:31;;;;;;;9.7;6.6;;;;;;;24.9;63.12;;;;;
2023/06/22 19:20:32;;;;;;;10.5;7.2;;;;;;;24.46;64.1;;;;;
2023/06/22 19:30:31;;;;;;;10.5;7.2;;;;;;;24.12;64.88;;;;;
2023/06/22 19:41:32;;;;;;;10.5;7.2;;;;;;;23.72;66.1;;;;;
2023/06/22 19:51:32;;;;;;;13.3;9.5;;;;;;;23.37;66.53;;;;;
2023/06/22 20:01:31;;;;;;;13.3;9.5;;;;;;;23.03;68.4;;;;;
2023/06/22 20:12:31;;;;;;;13.3;9.5;;;;;;;22.8;68.81;;;;;
2023/06/22 20:23:31;;;;;;;10.4;8.1;;;;;;;22.53;69.03;;;;;
2023/06/22 20:33:31;;;;;;;10.4;8.1;;;;;;;22.36;70.07;;;;;
2023/06/22 20:44:31;;;;;;;10.4;8.1;;;;;;;22.2;71.02;;;;;
2023/06/22 20:54:33;;;;;;;10.5;7.9;;;;;;;22.05;71;;;;;
2023/06/22 21:04:31;;;;;;;10.5;7.9;;;;;;;21.95;71.36;;;;;
2023/06/22 21:14:31;;;;;;;10.5;7.9;;;;;;;21.82;71.48;;;;;
2023/06/22 21:25:31;;;;;;;9.5;7.2;;;;;;;21.64;73.13;;;;;
2023/06/22 21:35:31;;;;;;;9.5;7.2;;;;;;;21.6;72.18;;;;;
2023/06/22 21:46:31;;;;;;;10.5;7.3;;;;;;;21.48;72.52;;;;;
2023/06/22 21:57:31;;;;;;;10.5;7.3;;;;;;;21.34;73.26;;;;;
2023/06/22 22:07:31;;;;;;;10.5;7.3;;;;;;;21.26;73.84;;;;;
2023/06/22 22:18:32;;;;;;;10.4;7.4;;;;;;;21.19;74.17;;;;;
2023/06/22 22:28:31;;;;;;;10.4;7.4;;;;;;;21.03;74.43;;;;;
2023/06/22 22:38:34;;;;;;;10.4;7.4;;;;;;;20.77;74.81;;;;;
2023/06/22 22:49:32;;;;;;;12.1;8.7;;;;;;;20.55;75.63;;;;;
2023/06/22 23:00:32;;;;;;;12.1;8.7;;;;;;;20.39;75.5;;;;;
2023/06/22 23:11:32;;;;;;;12.1;8.7;;;;;;;20.16;77.18;;;;;
2023/06/22 23:22:32;;;;;;;12.7;8.6;;;;;;;19.99;76.89;;;;;
2023/06/22 23:33:32;;;;;;;12.7;8.6;;;;;;;19.89;78.89;;;;;
2023/06/22 23:43:32;;;;;;;12.7;8.6;;;;;;;19.79;79.49;;;;;
2023/06/22 23:54:32;;;;;;;13.2;9.6;;;;;;;19.64;80.08;;;;;
